sensor_id;sensor_type;location;lat;lon;timestamp;pressure;altitude;pressure_sealevel;temperature;humidity
49943;BME280;36011;53.362;58.948;2023-06-04T00:02:07;96748.47;;;20.01;45.65
49943;BME280;36011;53.362;58.948;2023-06-04T00:05:08;96750.19;;;20.10;43.70
49943;BME280;36011;53.362;58.948;2023-06-04T00:08:09;96758.53;;;20.15;44.90
49943;BME280;36011;53.362;58.948;2023-06-04T00:11:12;96754.88;;;20.16;45.23
49943;BME280;36011;53.362;58.948;2023-06-04T00:14:15;96754.56;;;20.19;44.33
49943;BME280;36011;53.362;58.948;2023-06-04T00:17:16;96757.91;;;20.22;44.88
49943;BME280;36011;53.362;58.948;2023-06-04T00:20:20;96756.22;;;20.21;44.80
49943;BME280;36011;53.362;58.948;2023-06-04T00:23:25;96765.94;;;20.22;44.66
49943;BME280;36011;53.362;58.948;2023-06-04T00:26:28;96773.63;;;20.25;44.63
49943;BME280;36011;53.362;58.948;2023-06-04T00:29:35;96773.97;;;20.30;44.64
49943;BME280;36011;53.362;58.948;2023-06-04T00:32:38;96772.97;;;20.31;45.79
49943;BME280;36011;53.362;58.948;2023-06-04T00:35:44;96760.63;;;20.30;45.17
49943;BME280;36011;53.362;58.948;2023-06-04T00:38:48;96758.59;;;20.32;45.32
49943;BME280;36011;53.362;58.948;2023-06-04T00:41:54;96759.63;;;20.39;44.84
49943;BME280;36011;53.362;58.948;2023-06-04T00:44:55;96764.78;;;20.40;44.69
49943;BME280;36011;53.362;58.948;2023-06-04T00:47:58;96764.16;;;20.47;44.67
49943;BME280;36011;53.362;58.948;2023-06-04T00:51:02;96763.38;;;20.62;44.35
49943;BME280;36011;53.362;58.948;2023-06-04T00:54:09;96756.72;;;20.67;44.49
49943;BME280;36011;53.362;58.948;2023-06-04T00:57:12;96757.34;;;20.69;44.52
49943;BME280;36011;53.362;58.948;2023-06-04T01:00:16;96758.38;;;20.68;44.96
49943;BME280;36011;53.362;58.948;2023-06-04T01:03:20;96754.00;;;20.75;44.41
49943;BME280;36011;53.362;58.948;2023-06-04T01:09:36;96756.06;;;20.89;44.22
49943;BME280;36011;53.362;58.948;2023-06-04T01:12:41;96749.84;;;20.89;44.19
49943;BME280;36011;53.362;58.948;2023-06-04T01:15:44;96749.53;;;20.83;44.85
49943;BME280;36011;53.362;58.948;2023-06-04T01:18:48;96749.34;;;20.77;45.06
49943;BME280;36011;53.362;58.948;2023-06-04T01:21:51;96752.00;;;20.69;45.78
49943;BME280;36011;53.362;58.948;2023-06-04T01:24:56;96766.19;;;20.69;44.64
49943;BME280;36011;53.362;58.948;2023-06-04T01:28:05;96761.38;;;20.73;44.65
49943;BME280;36011;53.362;58.948;2023-06-04T01:31:08;96759.34;;;20.75;45.06
49943;BME280;36011;53.362;58.948;2023-06-04T01:34:10;96757.69;;;20.74;45.09
49943;BME280;36011;53.362;58.948;2023-06-04T01:37:11;96754.69;;;20.77;44.96
49943;BME280;36011;53.362;58.948;2023-06-04T01:40:12;96757.38;;;20.85;45.41
49943;BME280;36011;53.362;58.948;2023-06-04T01:43:16;96756.72;;;20.99;44.88
49943;BME280;36011;53.362;58.948;2023-06-04T01:46:17;96764.38;;;21.27;45.00
49943;BME280;36011;53.362;58.948;2023-06-04T01:49:23;96753.31;;;21.63;43.75
49943;BME280;36011;53.362;58.948;2023-06-04T01:52:26;96754.66;;;22.06;43.50
49943;BME280;36011;53.362;58.948;2023-06-04T01:55:27;96751.66;;;22.40;42.91
49943;BME280;36011;53.362;58.948;2023-06-04T01:58:32;96748.13;;;22.71;41.44
49943;BME280;36011;53.362;58.948;2023-06-04T02:01:36;96738.56;;;22.92;41.82
49943;BME280;36011;53.362;58.948;2023-06-04T02:04:40;96743.38;;;23.04;41.99
49943;BME280;36011;53.362;58.948;2023-06-04T02:07:43;96762.16;;;23.04;41.99
49943;BME280;36011;53.362;58.948;2023-06-04T02:10:50;96772.34;;;23.09;42.00
49943;BME280;36011;53.362;58.948;2023-06-04T02:13:51;96770.41;;;23.18;41.64
49943;BME280;36011;53.362;58.948;2023-06-04T02:16:52;96758.84;;;23.17;41.93
49943;BME280;36011;53.362;58.948;2023-06-04T02:19:54;96759.59;;;23.11;42.34
49943;BME280;36011;53.362;58.948;2023-06-04T02:23:00;96756.22;;;23.09;42.43
49943;BME280;36011;53.362;58.948;2023-06-04T02:26:04;96765.78;;;23.12;42.29
49943;BME280;36011;53.362;58.948;2023-06-04T02:29:08;96771.41;;;23.02;42.60
49943;BME280;36011;53.362;58.948;2023-06-04T02:32:12;96767.06;;;22.93;42.60
49943;BME280;36011;53.362;58.948;2023-06-04T02:35:15;96759.72;;;22.86;43.08
49943;BME280;36011;53.362;58.948;2023-06-04T02:38:19;96759.44;;;22.81;42.88
49943;BME280;36011;53.362;58.948;2023-06-04T02:41:20;96759.94;;;22.85;43.19
49943;BME280;36011;53.362;58.948;2023-06-04T02:44:22;96759.66;;;22.95;42.71
49943;BME280;36011;53.362;58.948;2023-06-04T02:47:25;96756.22;;;23.09;42.76
49943;BME280;36011;53.362;58.948;2023-06-04T02:50:30;96754.06;;;23.27;42.19
49943;BME280;36011;53.362;58.948;2023-06-04T02:53:31;96755.72;;;23.28;42.57
49943;BME280;36011;53.362;58.948;2023-06-04T02:56:35;96745.72;;;23.22;42.69
49943;BME280;36011;53.362;58.948;2023-06-04T02:59:39;96742.75;;;23.17;42.76
49943;BME280;36011;53.362;58.948;2023-06-04T03:02:44;96736.88;;;22.99;42.87
49943;BME280;36011;53.362;58.948;2023-06-04T03:05:45;96737.38;;;22.94;43.27
49943;BME280;36011;53.362;58.948;2023-06-04T03:08:47;96742.41;;;22.97;43.42
49943;BME280;36011;53.362;58.948;2023-06-04T03:11:48;96743.00;;;22.84;43.76
49943;BME280;36011;53.362;58.948;2023-06-04T03:14:51;96742.16;;;22.84;43.51
49943;BME280;36011;53.362;58.948;2023-06-04T03:17:55;96739.75;;;22.89;43.38
49943;BME280;36011;53.362;58.948;2023-06-04T03:20:59;96735.03;;;22.99;43.79
49943;BME280;36011;53.362;58.948;2023-06-04T03:24:04;96737.28;;;23.11;43.02
49943;BME280;36011;53.362;58.948;2023-06-04T03:27:05;96744.06;;;23.21;43.00
49943;BME280;36011;53.362;58.948;2023-06-04T03:30:08;96740.00;;;23.25;42.86
49943;BME280;36011;53.362;58.948;2023-06-04T03:33:10;96729.72;;;23.29;42.79
49943;BME280;36011;53.362;58.948;2023-06-04T03:36:13;96739.84;;;23.42;43.02
49943;BME280;36011;53.362;58.948;2023-06-04T03:39:19;96738.81;;;23.58;42.49
49943;BME280;36011;53.362;58.948;2023-06-04T03:42:23;96747.75;;;23.88;42.03
49943;BME280;36011;53.362;58.948;2023-06-04T03:45:24;96745.69;;;24.19;41.60
49943;BME280;36011;53.362;58.948;2023-06-04T03:48:25;96754.09;;;24.46;41.56
49943;BME280;36011;53.362;58.948;2023-06-04T03:51:30;96752.19;;;24.61;41.42
49943;BME280;36011;53.362;58.948;2023-06-04T03:54:34;96754.19;;;24.74;41.19
49943;BME280;36011;53.362;58.948;2023-06-04T03:57:35;96763.75;;;24.98;40.85
49943;BME280;36011;53.362;58.948;2023-06-04T04:00:36;96759.75;;;25.37;40.15
49943;BME280;36011;53.362;58.948;2023-06-04T04:03:39;96762.09;;;25.75;39.38
49943;BME280;36011;53.362;58.948;2023-06-04T04:06:43;96755.53;;;26.19;38.76
49943;BME280;36011;53.362;58.948;2023-06-04T04:09:46;96758.63;;;26.71;38.69
49943;BME280;36011;53.362;58.948;2023-06-04T04:12:47;96741.69;;;27.37;37.77
49943;BME280;36011;53.362;58.948;2023-06-04T04:15:51;96742.81;;;28.07;36.64
49943;BME280;36011;53.362;58.948;2023-06-04T04:18:55;96749.75;;;28.55;36.02
49943;BME280;36011;53.362;58.948;2023-06-04T04:21:58;96744.13;;;28.88;35.52
49943;BME280;36011;53.362;58.948;2023-06-04T04:24:59;96751.91;;;29.09;35.50
49943;BME280;36011;53.362;58.948;2023-06-04T04:28:06;96753.47;;;29.24;35.21
49943;BME280;36011;53.362;58.948;2023-06-04T04:31:09;96747.97;;;29.37;35.05
49943;BME280;36011;53.362;58.948;2023-06-04T04:34:13;96759.00;;;29.61;35.03
49943;BME280;36011;53.362;58.948;2023-06-04T04:37:18;96756.38;;;29.79;34.82
49943;BME280;36011;53.362;58.948;2023-06-04T04:40:24;96754.28;;;30.18;34.42
49943;BME280;36011;53.362;58.948;2023-06-04T04:43:30;96758.41;;;31.95;31.36
49943;BME280;36011;53.362;58.948;2023-06-04T04:46:31;96767.22;;;34.91;27.42
49943;BME280;36011;53.362;58.948;2023-06-04T04:49:32;96762.66;;;37.29;25.76
49943;BME280;36011;53.362;58.948;2023-06-04T04:52:33;96767.13;;;39.21;24.57
49943;BME280;36011;53.362;58.948;2023-06-04T04:55:37;96761.88;;;40.90;22.89
49943;BME280;36011;53.362;58.948;2023-06-04T04:58:43;96762.94;;;42.30;21.78
49943;BME280;36011;53.362;58.948;2023-06-04T05:01:49;96758.16;;;41.37;23.64
49943;BME280;36011;53.362;58.948;2023-06-04T05:04:56;96742.06;;;40.21;24.47
49943;BME280;36011;53.362;58.948;2023-06-04T05:08:02;96743.25;;;38.62;25.85
49943;BME280;36011;53.362;58.948;2023-06-04T05:11:05;96740.16;;;37.73;26.39
49943;BME280;36011;53.362;58.948;2023-06-04T05:14:09;96742.47;;;39.01;26.08
49943;BME280;36011;53.362;58.948;2023-06-04T05:17:11;96753.28;;;42.00;22.79
49943;BME280;36011;53.362;58.948;2023-06-04T05:20:16;96757.03;;;45.80;19.91
49943;BME280;36011;53.362;58.948;2023-06-04T05:23:19;96752.91;;;49.32;17.51
49943;BME280;36011;53.362;58.948;2023-06-04T05:26:22;96758.16;;;51.79;15.85
49943;BME280;36011;53.362;58.948;2023-06-04T05:29:29;96754.13;;;53.93;14.81
49943;BME280;36011;53.362;58.948;2023-06-04T05:32:33;96746.47;;;54.31;12.41
49943;BME280;36011;53.362;58.948;2023-06-04T05:35:36;96740.06;;;53.25;14.97
49943;BME280;36011;53.362;58.948;2023-06-04T05:38:43;96745.47;;;53.37;13.87
49943;BME280;36011;53.362;58.948;2023-06-04T05:41:50;96740.75;;;54.64;11.42
49943;BME280;36011;53.362;58.948;2023-06-04T05:44:55;96733.56;;;55.58;9.06
49943;BME280;36011;53.362;58.948;2023-06-04T05:47:58;96735.72;;;56.83;10.62
49943;BME280;36011;53.362;58.948;2023-06-04T05:51:01;96726.69;;;58.08;11.19
49943;BME280;36011;53.362;58.948;2023-06-04T05:54:03;96717.66;;;58.69;8.81
49943;BME280;36011;53.362;58.948;2023-06-04T05:57:10;96718.75;;;59.17;10.44
49943;BME280;36011;53.362;58.948;2023-06-04T06:00:13;96719.31;;;60.47;9.39
49943;BME280;36011;53.362;58.948;2023-06-04T06:37:20;96650.44;;;60.39;8.32
49943;BME280;36011;53.362;58.948;2023-06-04T06:40:23;96631.34;;;59.39;8.69
49943;BME280;36011;53.362;58.948;2023-06-04T06:43:26;96632.03;;;60.24;6.90
49943;BME280;36011;53.362;58.948;2023-06-04T08:29:38;96503.66;;;60.29;4.18
49943;BME280;36011;53.362;58.948;2023-06-04T08:32:46;96488.34;;;59.80;3.86
49943;BME280;36011;53.362;58.948;2023-06-04T08:35:54;96482.59;;;60.27;3.65
49943;BME280;36011;53.362;58.948;2023-06-04T08:38:57;96480.44;;;60.91;3.53
49943;BME280;36011;53.362;58.948;2023-06-04T08:42:00;96488.28;;;61.85;2.93
49943;BME280;36011;53.362;58.948;2023-06-04T08:45:05;96486.44;;;62.24;2.64
49943;BME280;36011;53.362;58.948;2023-06-04T08:48:12;96477.16;;;62.20;2.63
49943;BME280;36011;53.362;58.948;2023-06-04T08:51:17;96465.56;;;61.36;2.64
49943;BME280;36011;53.362;58.948;2023-06-04T08:54:19;96460.16;;;60.32;2.48
49943;BME280;36011;53.362;58.948;2023-06-04T08:57:25;96462.53;;;60.17;2.59
49943;BME280;36011;53.362;58.948;2023-06-04T09:00:27;96439.78;;;58.76;3.17
49943;BME280;36011;53.362;58.948;2023-06-04T09:03:29;96434.81;;;56.07;3.89
49943;BME280;36011;53.362;58.948;2023-06-04T09:06:34;96421.59;;;54.82;4.12
49943;BME280;36011;53.362;58.948;2023-06-04T09:09:42;96425.88;;;56.19;4.11
49943;BME280;36011;53.362;58.948;2023-06-04T09:12:47;96432.16;;;56.62;3.83
49943;BME280;36011;53.362;58.948;2023-06-04T09:16:01;96415.97;;;55.75;4.19
49943;BME280;36011;53.362;58.948;2023-06-04T09:19:03;96421.94;;;55.88;3.74
49943;BME280;36011;53.362;58.948;2023-06-04T09:22:09;96411.66;;;54.08;4.24
49943;BME280;36011;53.362;58.948;2023-06-04T09:25:18;96402.09;;;50.28;5.74
49943;BME280;36011;53.362;58.948;2023-06-04T09:28:26;96411.78;;;48.37;6.77
49943;BME280;36011;53.362;58.948;2023-06-04T09:31:30;96406.63;;;46.85;7.83
49943;BME280;36011;53.362;58.948;2023-06-04T09:34:37;96396.66;;;47.82;7.09
49943;BME280;36011;53.362;58.948;2023-06-04T09:37:52;96399.22;;;48.87;6.83
49943;BME280;36011;53.362;58.948;2023-06-04T09:40:58;96399.66;;;47.64;7.44
49943;BME280;36011;53.362;58.948;2023-06-04T09:44:02;96400.72;;;45.57;8.25
49943;BME280;36011;53.362;58.948;2023-06-04T09:47:07;96400.09;;;45.13;8.59
49943;BME280;36011;53.362;58.948;2023-06-04T09:50:14;96386.72;;;46.62;7.91
49943;BME280;36011;53.362;58.948;2023-06-04T09:53:19;96400.78;;;48.56;6.94
49943;BME280;36011;53.362;58.948;2023-06-04T09:56:26;96414.97;;;49.11;6.88
49943;BME280;36011;53.362;58.948;2023-06-04T09:59:32;96398.31;;;47.46;7.48
49943;BME280;36011;53.362;58.948;2023-06-04T10:02:42;96390.25;;;45.33;8.30
49943;BME280;36011;53.362;58.948;2023-06-04T10:05:44;96378.75;;;43.36;9.33
49943;BME280;36011;53.362;58.948;2023-06-04T10:08:45;96379.59;;;41.75;10.51
49943;BME280;36011;53.362;58.948;2023-06-04T10:11:53;96385.94;;;40.84;10.75
49943;BME280;36011;53.362;58.948;2023-06-04T10:15:09;96391.03;;;40.91;11.24
49943;BME280;36011;53.362;58.948;2023-06-04T10:18:13;96395.91;;;40.20;11.47
49943;BME280;36011;53.362;58.948;2023-06-04T10:21:20;96406.75;;;40.76;11.90
49943;BME280;36011;53.362;58.948;2023-06-04T10:24:25;96408.84;;;41.26;11.46
49943;BME280;36011;53.362;58.948;2023-06-04T10:27:31;96394.84;;;41.22;11.35
49943;BME280;36011;53.362;58.948;2023-06-04T10:30:38;96382.56;;;40.27;11.38
49943;BME280;36011;53.362;58.948;2023-06-04T10:33:39;96372.66;;;39.31;11.61
49943;BME280;36011;53.362;58.948;2023-06-04T10:36:44;96365.09;;;38.99;11.57
49943;BME280;36011;53.362;58.948;2023-06-04T10:39:55;96382.53;;;38.84;11.46
49943;BME280;36011;53.362;58.948;2023-06-04T10:43:04;96377.94;;;39.03;11.74
49943;BME280;36011;53.362;58.948;2023-06-04T10:46:11;96387.94;;;40.65;10.84
49943;BME280;36011;53.362;58.948;2023-06-04T10:49:25;96383.00;;;42.62;9.68
49943;BME280;36011;53.362;58.948;2023-06-04T10:52:27;96391.69;;;44.45;8.81
49943;BME280;36011;53.362;58.948;2023-06-04T10:55:33;96394.50;;;46.02;8.19
49943;BME280;36011;53.362;58.948;2023-06-04T10:58:44;96389.25;;;47.37;7.78
49943;BME280;36011;53.362;58.948;2023-06-04T11:01:47;96389.13;;;48.10;7.40
49943;BME280;36011;53.362;58.948;2023-06-04T11:05:00;96392.16;;;48.33;7.62
49943;BME280;36011;53.362;58.948;2023-06-04T11:08:11;96393.47;;;48.52;7.70
49943;BME280;36011;53.362;58.948;2023-06-04T11:11:16;96385.53;;;47.98;7.71
49943;BME280;36011;53.362;58.948;2023-06-04T11:14:17;96377.91;;;47.17;8.31
49943;BME280;36011;53.362;58.948;2023-06-04T11:17:22;96367.56;;;46.48;8.55
49943;BME280;36011;53.362;58.948;2023-06-04T11:20:25;96381.91;;;46.04;8.87
49943;BME280;36011;53.362;58.948;2023-06-04T11:23:28;96373.63;;;45.54;8.83
49943;BME280;36011;53.362;58.948;2023-06-04T11:26:33;96361.22;;;44.83;8.86
49943;BME280;36011;53.362;58.948;2023-06-04T11:29:39;96366.03;;;44.56;8.84
49943;BME280;36011;53.362;58.948;2023-06-04T11:32:43;96357.44;;;43.54;8.78
49943;BME280;36011;53.362;58.948;2023-06-04T11:35:49;96358.34;;;42.74;9.17
49943;BME280;36011;53.362;58.948;2023-06-04T11:39:03;96353.00;;;42.47;9.48
49943;BME280;36011;53.362;58.948;2023-06-04T11:42:07;96357.91;;;41.32;10.01
49943;BME280;36011;53.362;58.948;2023-06-04T11:45:10;96335.28;;;40.33;10.25
49943;BME280;36011;53.362;58.948;2023-06-04T11:48:16;96341.53;;;40.06;10.22
49943;BME280;36011;53.362;58.948;2023-06-04T11:51:20;96323.47;;;39.24;10.32
49943;BME280;36011;53.362;58.948;2023-06-04T11:54:21;96312.81;;;39.18;10.34
49943;BME280;36011;53.362;58.948;2023-06-04T11:57:25;96314.88;;;38.88;10.99
49943;BME280;36011;53.362;58.948;2023-06-04T12:00:26;96318.53;;;38.78;10.36
49943;BME280;36011;53.362;58.948;2023-06-04T12:03:33;96310.44;;;38.68;10.27
49943;BME280;36011;53.362;58.948;2023-06-04T12:06:38;96314.94;;;38.59;10.46
49943;BME280;36011;53.362;58.948;2023-06-04T12:09:42;96299.50;;;38.34;10.21
49943;BME280;36011;53.362;58.948;2023-06-04T12:12:43;96301.19;;;38.30;10.00
49943;BME280;36011;53.362;58.948;2023-06-04T12:15:50;96308.16;;;38.22;11.00
49943;BME280;36011;53.362;58.948;2023-06-04T12:18:51;96312.13;;;38.11;11.31
49943;BME280;36011;53.362;58.948;2023-06-04T12:22:02;96307.91;;;37.84;11.35
49943;BME280;36011;53.362;58.948;2023-06-04T12:25:06;96318.50;;;37.67;11.96
49943;BME280;36011;53.362;58.948;2023-06-04T12:28:16;96351.47;;;37.12;13.29
49943;BME280;36011;53.362;58.948;2023-06-04T12:31:23;96354.53;;;37.00;15.09
49943;BME280;36011;53.362;58.948;2023-06-04T12:34:29;96373.19;;;36.88;15.58
49943;BME280;36011;53.362;58.948;2023-06-04T12:37:35;96367.81;;;36.57;15.53
49943;BME280;36011;53.362;58.948;2023-06-04T12:40:36;96383.44;;;36.47;15.69
49943;BME280;36011;53.362;58.948;2023-06-04T12:43:43;96370.59;;;36.01;16.24
49943;BME280;36011;53.362;58.948;2023-06-04T12:46:47;96364.53;;;35.68;16.56
49943;BME280;36011;53.362;58.948;2023-06-04T12:49:50;96382.53;;;35.39;16.68
49943;BME280;36011;53.362;58.948;2023-06-04T12:52:55;96364.97;;;35.19;16.90
49943;BME280;36011;53.362;58.948;2023-06-04T12:55:57;96366.44;;;34.90;17.44
49943;BME280;36011;53.362;58.948;2023-06-04T12:59:01;96365.03;;;34.77;17.17
49943;BME280;36011;53.362;58.948;2023-06-04T13:02:05;96355.72;;;34.73;17.16
49943;BME280;36011;53.362;58.948;2023-06-04T13:05:08;96352.13;;;34.67;17.49
49943;BME280;36011;53.362;58.948;2023-06-04T13:08:09;96357.66;;;34.77;17.21
49943;BME280;36011;53.362;58.948;2023-06-04T13:11:10;96351.97;;;34.94;17.16
49943;BME280;36011;53.362;58.948;2023-06-04T13:14:15;96347.91;;;35.02;16.98
49943;BME280;36011;53.362;58.948;2023-06-04T13:17:16;96364.66;;;35.21;17.26
49943;BME280;36011;53.362;58.948;2023-06-04T13:20:20;96370.91;;;35.06;17.26
49943;BME280;36011;53.362;58.948;2023-06-04T13:23:21;96364.84;;;34.99;17.26
49943;BME280;36011;53.362;58.948;2023-06-04T13:26:24;96370.53;;;34.87;18.02
49943;BME280;36011;53.362;58.948;2023-06-04T13:29:28;96368.59;;;34.87;17.82
49943;BME280;36011;53.362;58.948;2023-06-04T13:32:34;96369.31;;;35.15;17.63
49943;BME280;36011;53.362;58.948;2023-06-04T13:35:35;96379.25;;;35.42;17.03
49943;BME280;36011;53.362;58.948;2023-06-04T13:38:36;96370.97;;;35.26;16.90
49943;BME280;36011;53.362;58.948;2023-06-04T13:41:40;96368.69;;;35.03;17.35
49943;BME280;36011;53.362;58.948;2023-06-04T13:44:46;96379.28;;;34.89;17.31
49943;BME280;36011;53.362;58.948;2023-06-04T13:47:52;96378.44;;;34.83;17.35
49943;BME280;36011;53.362;58.948;2023-06-04T13:50:54;96387.16;;;34.75;17.71
49943;BME280;36011;53.362;58.948;2023-06-04T13:53:55;96384.38;;;34.70;17.86
49943;BME280;36011;53.362;58.948;2023-06-04T13:57:02;96371.50;;;34.23;18.41
49943;BME280;36011;53.362;58.948;2023-06-04T14:00:07;96374.09;;;33.75;18.59
49943;BME280;36011;53.362;58.948;2023-06-04T14:03:12;96372.00;;;33.34;19.00
49943;BME280;36011;53.362;58.948;2023-06-04T14:06:14;96376.03;;;32.82;19.29
49943;BME280;36011;53.362;58.948;2023-06-04T14:09:17;96368.09;;;32.41;19.48
49943;BME280;36011;53.362;58.948;2023-06-04T14:12:22;96370.19;;;32.17;19.94
49943;BME280;36011;53.362;58.948;2023-06-04T14:15:26;96375.00;;;31.93;19.89
49943;BME280;36011;53.362;58.948;2023-06-04T14:18:29;96373.28;;;31.75;19.97
49943;BME280;36011;53.362;58.948;2023-06-04T14:21:30;96371.13;;;31.61;20.73
49943;BME280;36011;53.362;58.948;2023-06-04T14:24:34;96362.72;;;31.33;20.49
49943;BME280;36011;53.362;58.948;2023-06-04T14:27:39;96371.19;;;31.20;20.53
49943;BME280;36011;53.362;58.948;2023-06-04T14:30:42;96368.16;;;31.05;20.22
49943;BME280;36011;53.362;58.948;2023-06-04T14:33:46;96368.59;;;31.14;20.46
49943;BME280;36011;53.362;58.948;2023-06-04T14:36:50;96364.88;;;31.31;20.27
49943;BME280;36011;53.362;58.948;2023-06-04T14:39:53;96370.59;;;31.47;20.22
49943;BME280;36011;53.362;58.948;2023-06-04T14:42:57;96369.31;;;31.66;20.23
49943;BME280;36011;53.362;58.948;2023-06-04T14:46:00;96363.56;;;31.63;21.21
49943;BME280;36011;53.362;58.948;2023-06-04T14:49:03;96368.22;;;31.50;21.53
49943;BME280;36011;53.362;58.948;2023-06-04T14:52:06;96361.53;;;31.41;21.78
49943;BME280;36011;53.362;58.948;2023-06-04T14:55:10;96361.94;;;31.50;22.28
49943;BME280;36011;53.362;58.948;2023-06-04T14:58:14;96367.31;;;31.33;22.29
49943;BME280;36011;53.362;58.948;2023-06-04T15:01:17;96365.44;;;31.33;22.75
49943;BME280;36011;53.362;58.948;2023-06-04T15:04:21;96367.66;;;31.08;23.09
49943;BME280;36011;53.362;58.948;2023-06-04T15:07:25;96366.84;;;31.07;23.49
49943;BME280;36011;53.362;58.948;2023-06-04T15:10:29;96357.53;;;31.61;22.69
49943;BME280;36011;53.362;58.948;2023-06-04T15:13:32;96366.16;;;31.41;23.19
49943;BME280;36011;53.362;58.948;2023-06-04T15:16:35;96364.00;;;31.14;23.28
49943;BME280;36011;53.362;58.948;2023-06-04T15:19:38;96376.47;;;30.86;23.80
49943;BME280;36011;53.362;58.948;2023-06-04T15:22:41;96376.25;;;30.64;23.94
49943;BME280;36011;53.362;58.948;2023-06-04T15:25:44;96369.31;;;30.45;24.70
49943;BME280;36011;53.362;58.948;2023-06-04T15:28:47;96371.31;;;30.26;24.60
49943;BME280;36011;53.362;58.948;2023-06-04T15:31:49;96374.13;;;30.08;24.99
49943;BME280;36011;53.362;58.948;2023-06-04T15:34:52;96369.84;;;29.88;25.31
49943;BME280;36011;53.362;58.948;2023-06-04T15:37:57;96378.66;;;29.72;25.51
49943;BME280;36011;53.362;58.948;2023-06-04T15:41:00;96376.84;;;29.54;25.36
49943;BME280;36011;53.362;58.948;2023-06-04T15:44:03;96385.03;;;29.36;25.47
49943;BME280;36011;53.362;58.948;2023-06-04T15:47:06;96388.75;;;29.23;26.17
49943;BME280;36011;53.362;58.948;2023-06-04T15:50:15;96391.91;;;29.01;25.99
49943;BME280;36011;53.362;58.948;2023-06-04T15:53:19;96392.91;;;28.88;26.28
49943;BME280;36011;53.362;58.948;2023-06-04T15:56:23;96394.78;;;28.70;26.45
49943;BME280;36011;53.362;58.948;2023-06-04T15:59:26;96397.50;;;28.51;26.91
49943;BME280;36011;53.362;58.948;2023-06-04T16:02:29;96400.13;;;28.33;26.56
49943;BME280;36011;53.362;58.948;2023-06-04T16:05:33;96402.75;;;28.21;27.21
49943;BME280;36011;53.362;58.948;2023-06-04T16:08:37;96401.66;;;28.04;27.27
49943;BME280;36011;53.362;58.948;2023-06-04T16:11:41;96403.91;;;27.82;27.06
49943;BME280;36011;53.362;58.948;2023-06-04T16:14:45;96411.03;;;27.69;27.45
49943;BME280;36011;53.362;58.948;2023-06-04T16:17:49;96406.34;;;27.58;27.50
49943;BME280;36011;53.362;58.948;2023-06-04T16:20:53;96419.94;;;27.45;27.51
49943;BME280;36011;53.362;58.948;2023-06-04T16:23:59;96423.75;;;27.30;27.88
49943;BME280;36011;53.362;58.948;2023-06-04T16:27:01;96437.94;;;27.19;28.06
49943;BME280;36011;53.362;58.948;2023-06-04T16:30:04;96427.16;;;27.06;28.28
49943;BME280;36011;53.362;58.948;2023-06-04T16:33:08;96423.66;;;26.99;28.23
49943;BME280;36011;53.362;58.948;2023-06-04T16:36:11;96429.72;;;26.87;28.56
49943;BME280;36011;53.362;58.948;2023-06-04T16:39:14;96435.16;;;26.74;28.68
49943;BME280;36011;53.362;58.948;2023-06-04T16:42:18;96433.09;;;26.63;29.55
49943;BME280;36011;53.362;58.948;2023-06-04T16:45:22;96428.59;;;26.50;29.47
49943;BME280;36011;53.362;58.948;2023-06-04T16:48:25;96435.00;;;26.36;29.69
49943;BME280;36011;53.362;58.948;2023-06-04T16:51:29;96434.38;;;26.20;29.85
49943;BME280;36011;53.362;58.948;2023-06-04T16:54:33;96436.88;;;26.15;30.11
49943;BME280;36011;53.362;58.948;2023-06-04T16:57:35;96431.69;;;26.01;30.16
49943;BME280;36011;53.362;58.948;2023-06-04T17:00:38;96430.66;;;25.88;30.17
49943;BME280;36011;53.362;58.948;2023-06-04T17:03:41;96434.34;;;25.81;30.24
49943;BME280;36011;53.362;58.948;2023-06-04T17:06:44;96428.13;;;25.60;30.40
49943;BME280;36011;53.362;58.948;2023-06-04T17:09:47;96437.63;;;25.49;30.62
49943;BME280;36011;53.362;58.948;2023-06-04T17:12:49;96437.41;;;25.44;30.76
49943;BME280;36011;53.362;58.948;2023-06-04T17:15:54;96443.38;;;25.33;31.03
49943;BME280;36011;53.362;58.948;2023-06-04T17:18:56;96442.72;;;25.18;30.75
49943;BME280;36011;53.362;58.948;2023-06-04T17:22:00;96443.28;;;25.13;32.16
49943;BME280;36011;53.362;58.948;2023-06-04T17:25:06;96451.75;;;25.10;31.37
49943;BME280;36011;53.362;58.948;2023-06-04T17:28:08;96456.69;;;25.00;31.64
49943;BME280;36011;53.362;58.948;2023-06-04T17:31:11;96450.66;;;24.91;31.61
49943;BME280;36011;53.362;58.948;2023-06-04T17:34:18;96448.97;;;24.83;31.77
49943;BME280;36011;53.362;58.948;2023-06-04T17:37:21;96453.44;;;24.70;31.75
49943;BME280;36011;53.362;58.948;2023-06-04T17:40:24;96454.63;;;24.60;31.81
49943;BME280;36011;53.362;58.948;2023-06-04T17:43:27;96451.66;;;24.49;32.25
49943;BME280;36011;53.362;58.948;2023-06-04T17:46:31;96457.75;;;24.36;32.44
49943;BME280;36011;53.362;58.948;2023-06-04T17:49:34;96449.41;;;24.31;32.80
49943;BME280;36011;53.362;58.948;2023-06-04T17:52:38;96456.41;;;24.25;32.43
49943;BME280;36011;53.362;58.948;2023-06-04T17:55:42;96463.00;;;24.23;32.79
49943;BME280;36011;53.362;58.948;2023-06-04T17:58:46;96465.44;;;24.17;32.85
49943;BME280;36011;53.362;58.948;2023-06-04T18:01:48;96461.31;;;24.15;32.46
49943;BME280;36011;53.362;58.948;2023-06-04T18:04:52;96469.13;;;24.10;32.92
49943;BME280;36011;53.362;58.948;2023-06-04T18:07:55;96469.03;;;24.03;32.63
49943;BME280;36011;53.362;58.948;2023-06-04T18:10:59;96467.00;;;24.05;33.22
49943;BME280;36011;53.362;58.948;2023-06-04T18:14:03;96464.28;;;23.98;33.00
49943;BME280;36011;53.362;58.948;2023-06-04T18:17:06;96463.59;;;23.90;33.50
49943;BME280;36011;53.362;58.948;2023-06-04T18:20:10;96470.34;;;23.86;33.38
49943;BME280;36011;53.362;58.948;2023-06-04T18:23:12;96475.22;;;23.75;33.42
49943;BME280;36011;53.362;58.948;2023-06-04T18:26:17;96468.75;;;23.70;33.95